In Rescue
 
Open Full Screen Window  High Contrast Mode
Wind Gusting 16 knots
07
November 14, 2019 1:45 PM CST
Weather Information
Wind Direction
  220 °
Wind Speed
  07 kt (8 mph)
Wind Gust
  16 kt (18 mph)
Altimeter
29.94 in
Visibility
10 SM
Temperature
-04° C
25° F
Dewpoint
-11° C
12° F
Humidity
59%
1hr Rain Fall
00.00 in.
24hr Rain Fall
00.00 in.
Sky Condition
Overcast @ 2,800 ft
MVFR

METAR KCQM 141945Z AUTO 22007G16KT 10SM OVC028 M04/M11 A2994 RMK AO2

FAA Disclaimer: The data displayed is for advisory purposes only and is not to be used for flight planning or operations.